sensor_id;sensor_type;location;lat;lon;timestamp;P1;durP1;ratioP1;P2;durP2;ratioP2
13698;SDS011;6921;53.642;9.956;2023-07-02T00:01:49;6.47;;;4.22;;
13698;SDS011;6921;53.642;9.956;2023-07-02T00:03:52;6.68;;;4.07;;
13698;SDS011;6921;53.642;9.956;2023-07-02T00:05:56;6.97;;;4.53;;
13698;SDS011;6921;53.642;9.956;2023-07-02T00:08:01;7.22;;;4.78;;
13698;SDS011;6921;53.642;9.956;2023-07-02T00:10:05;6.82;;;4.47;;
13698;SDS011;6921;53.642;9.956;2023-07-02T00:12:09;5.10;;;4.45;;
13698;SDS011;6921;53.642;9.956;2023-07-02T00:14:13;8.20;;;5.03;;
13698;SDS011;6921;53.642;9.956;2023-07-02T00:16:17;9.75;;;5.13;;
13698;SDS011;6921;53.642;9.956;2023-07-02T00:18:20;10.90;;;5.03;;
13698;SDS011;6921;53.642;9.956;2023-07-02T00:20:24;6.43;;;5.20;;
13698;SDS011;6921;53.642;9.956;2023-07-02T00:22:27;7.55;;;5.18;;
13698;SDS011;6921;53.642;9.956;2023-07-02T00:24:34;5.82;;;4.68;;
13698;SDS011;6921;53.642;9.956;2023-07-02T00:26:37;10.77;;;5.15;;
13698;SDS011;6921;53.642;9.956;2023-07-02T00:28:41;7.25;;;5.53;;
13698;SDS011;6921;53.642;9.956;2023-07-02T00:30:45;7.20;;;4.90;;
13698;SDS011;6921;53.642;9.956;2023-07-02T00:32:49;6.88;;;4.82;;
13698;SDS011;6921;53.642;9.956;2023-07-02T00:34:52;5.90;;;4.88;;
13698;SDS011;6921;53.642;9.956;2023-07-02T00:36:56;8.63;;;5.28;;
13698;SDS011;6921;53.642;9.956;2023-07-02T00:38:59;7.88;;;5.45;;
13698;SDS011;6921;53.642;9.956;2023-07-02T00:41:04;8.20;;;5.53;;
13698;SDS011;6921;53.642;9.956;2023-07-02T00:43:11;10.40;;;5.43;;
13698;SDS011;6921;53.642;9.956;2023-07-02T00:45:15;6.95;;;5.45;;
13698;SDS011;6921;53.642;9.956;2023-07-02T00:47:18;6.75;;;5.55;;
13698;SDS011;6921;53.642;9.956;2023-07-02T00:49:21;7.35;;;5.38;;
13698;SDS011;6921;53.642;9.956;2023-07-02T00:51:25;6.68;;;4.95;;
13698;SDS011;6921;53.642;9.956;2023-07-02T00:53:29;9.30;;;5.07;;
13698;SDS011;6921;53.642;9.956;2023-07-02T00:55:33;8.45;;;4.90;;
13698;SDS011;6921;53.642;9.956;2023-07-02T00:57:38;8.40;;;4.70;;
13698;SDS011;6921;53.642;9.956;2023-07-02T00:59:42;7.10;;;4.85;;
13698;SDS011;6921;53.642;9.956;2023-07-02T01:01:45;8.65;;;5.13;;
13698;SDS011;6921;53.642;9.956;2023-07-02T01:03:51;6.78;;;5.43;;
13698;SDS011;6921;53.642;9.956;2023-07-02T01:05:56;7.50;;;5.22;;
13698;SDS011;6921;53.642;9.956;2023-07-02T01:07:59;6.95;;;5.47;;
13698;SDS011;6921;53.642;9.956;2023-07-02T01:10:03;11.25;;;5.63;;
13698;SDS011;6921;53.642;9.956;2023-07-02T01:12:07;8.30;;;5.47;;
13698;SDS011;6921;53.642;9.956;2023-07-02T01:14:16;5.47;;;4.63;;
13698;SDS011;6921;53.642;9.956;2023-07-02T01:16:22;6.45;;;4.60;;
13698;SDS011;6921;53.642;9.956;2023-07-02T01:18:25;5.75;;;4.60;;
13698;SDS011;6921;53.642;9.956;2023-07-02T01:20:31;10.02;;;5.10;;
13698;SDS011;6921;53.642;9.956;2023-07-02T01:22:36;8.68;;;4.85;;
13698;SDS011;6921;53.642;9.956;2023-07-02T01:24:40;5.78;;;5.18;;
13698;SDS011;6921;53.642;9.956;2023-07-02T01:26:44;7.88;;;4.90;;
13698;SDS011;6921;53.642;9.956;2023-07-02T01:28:49;8.70;;;5.15;;
13698;SDS011;6921;53.642;9.956;2023-07-02T01:30:52;6.75;;;5.10;;
13698;SDS011;6921;53.642;9.956;2023-07-02T01:32:56;7.78;;;4.90;;
13698;SDS011;6921;53.642;9.956;2023-07-02T01:35:00;8.30;;;5.03;;
13698;SDS011;6921;53.642;9.956;2023-07-02T01:37:05;6.15;;;5.55;;
13698;SDS011;6921;53.642;9.956;2023-07-02T01:39:10;7.55;;;5.43;;
13698;SDS011;6921;53.642;9.956;2023-07-02T01:41:16;6.72;;;5.13;;
13698;SDS011;6921;53.642;9.956;2023-07-02T01:43:20;8.32;;;5.72;;
13698;SDS011;6921;53.642;9.956;2023-07-02T01:45:24;8.52;;;5.65;;
13698;SDS011;6921;53.642;9.956;2023-07-02T01:47:28;9.35;;;5.63;;
13698;SDS011;6921;53.642;9.956;2023-07-02T01:49:32;9.70;;;5.82;;
13698;SDS011;6921;53.642;9.956;2023-07-02T01:51:37;9.27;;;5.32;;
13698;SDS011;6921;53.642;9.956;2023-07-02T01:53:42;8.57;;;5.38;;
13698;SDS011;6921;53.642;9.956;2023-07-02T01:55:46;11.93;;;5.60;;
13698;SDS011;6921;53.642;9.956;2023-07-02T01:57:50;10.10;;;6.03;;
13698;SDS011;6921;53.642;9.956;2023-07-02T01:59:53;8.70;;;5.25;;
13698;SDS011;6921;53.642;9.956;2023-07-02T02:01:57;8.57;;;5.47;;
13698;SDS011;6921;53.642;9.956;2023-07-02T02:04:00;6.55;;;5.60;;
13698;SDS011;6921;53.642;9.956;2023-07-02T02:06:04;7.05;;;5.80;;
13698;SDS011;6921;53.642;9.956;2023-07-02T02:08:07;8.45;;;5.38;;
13698;SDS011;6921;53.642;9.956;2023-07-02T02:10:12;9.88;;;5.13;;
13698;SDS011;6921;53.642;9.956;2023-07-02T02:12:16;6.97;;;5.55;;
13698;SDS011;6921;53.642;9.956;2023-07-02T02:14:19;6.80;;;5.57;;
13698;SDS011;6921;53.642;9.956;2023-07-02T02:16:23;7.65;;;5.85;;
13698;SDS011;6921;53.642;9.956;2023-07-02T02:18:27;9.23;;;6.25;;
13698;SDS011;6921;53.642;9.956;2023-07-02T02:20:31;11.80;;;6.45;;
13698;SDS011;6921;53.642;9.956;2023-07-02T02:22:34;7.20;;;6.20;;
13698;SDS011;6921;53.642;9.956;2023-07-02T02:24:38;8.75;;;5.82;;
13698;SDS011;6921;53.642;9.956;2023-07-02T02:26:43;10.98;;;6.28;;
13698;SDS011;6921;53.642;9.956;2023-07-02T02:28:46;8.43;;;6.15;;
13698;SDS011;6921;53.642;9.956;2023-07-02T02:30:50;8.38;;;6.50;;
13698;SDS011;6921;53.642;9.956;2023-07-02T02:32:54;10.20;;;5.90;;
13698;SDS011;6921;53.642;9.956;2023-07-02T02:34:57;9.38;;;6.55;;
13698;SDS011;6921;53.642;9.956;2023-07-02T02:37:01;10.50;;;6.45;;
13698;SDS011;6921;53.642;9.956;2023-07-02T02:39:05;7.65;;;5.50;;
13698;SDS011;6921;53.642;9.956;2023-07-02T02:41:08;7.38;;;5.38;;
13698;SDS011;6921;53.642;9.956;2023-07-02T02:43:13;10.55;;;7.07;;
13698;SDS011;6921;53.642;9.956;2023-07-02T02:45:18;8.63;;;6.10;;
13698;SDS011;6921;53.642;9.956;2023-07-02T02:47:21;7.47;;;5.72;;
13698;SDS011;6921;53.642;9.956;2023-07-02T02:49:25;8.45;;;5.95;;
13698;SDS011;6921;53.642;9.956;2023-07-02T02:51:28;7.07;;;5.65;;
13698;SDS011;6921;53.642;9.956;2023-07-02T02:53:32;8.32;;;5.68;;
13698;SDS011;6921;53.642;9.956;2023-07-02T02:55:36;7.75;;;5.72;;
13698;SDS011;6921;53.642;9.956;2023-07-02T02:57:39;8.07;;;5.55;;
13698;SDS011;6921;53.642;9.956;2023-07-02T02:59:45;6.38;;;5.70;;
13698;SDS011;6921;53.642;9.956;2023-07-02T03:01:49;9.98;;;6.05;;
13698;SDS011;6921;53.642;9.956;2023-07-02T03:03:53;8.05;;;5.55;;
13698;SDS011;6921;53.642;9.956;2023-07-02T03:05:56;7.75;;;5.93;;
13698;SDS011;6921;53.642;9.956;2023-07-02T03:08:00;9.25;;;6.43;;
13698;SDS011;6921;53.642;9.956;2023-07-02T03:10:04;8.63;;;6.78;;
13698;SDS011;6921;53.642;9.956;2023-07-02T03:12:08;9.07;;;5.57;;
13698;SDS011;6921;53.642;9.956;2023-07-02T03:14:12;11.52;;;6.07;;
13698;SDS011;6921;53.642;9.956;2023-07-02T03:16:17;8.50;;;6.55;;
13698;SDS011;6921;53.642;9.956;2023-07-02T03:18:22;7.20;;;6.00;;
13698;SDS011;6921;53.642;9.956;2023-07-02T03:20:26;11.45;;;5.88;;
13698;SDS011;6921;53.642;9.956;2023-07-02T03:22:30;10.48;;;6.47;;
13698;SDS011;6921;53.642;9.956;2023-07-02T03:24:33;11.30;;;6.70;;
13698;SDS011;6921;53.642;9.956;2023-07-02T03:26:37;9.73;;;6.20;;
13698;SDS011;6921;53.642;9.956;2023-07-02T03:28:40;9.70;;;5.80;;
13698;SDS011;6921;53.642;9.956;2023-07-02T03:30:44;7.43;;;5.47;;
13698;SDS011;6921;53.642;9.956;2023-07-02T03:32:49;8.45;;;6.20;;
13698;SDS011;6921;53.642;9.956;2023-07-02T03:34:53;7.78;;;5.78;;
13698;SDS011;6921;53.642;9.956;2023-07-02T03:36:56;9.27;;;5.90;;
13698;SDS011;6921;53.642;9.956;2023-07-02T03:39:00;7.30;;;5.90;;
13698;SDS011;6921;53.642;9.956;2023-07-02T03:41:05;9.57;;;5.88;;
13698;SDS011;6921;53.642;9.956;2023-07-02T03:43:09;12.57;;;5.95;;
13698;SDS011;6921;53.642;9.956;2023-07-02T03:45:12;9.80;;;6.00;;
13698;SDS011;6921;53.642;9.956;2023-07-02T03:47:16;10.35;;;5.57;;
13698;SDS011;6921;53.642;9.956;2023-07-02T03:49:23;8.48;;;5.55;;
13698;SDS011;6921;53.642;9.956;2023-07-02T03:51:26;14.10;;;5.88;;
13698;SDS011;6921;53.642;9.956;2023-07-02T03:53:31;10.10;;;5.93;;
13698;SDS011;6921;53.642;9.956;2023-07-02T03:55:35;13.40;;;5.90;;
13698;SDS011;6921;53.642;9.956;2023-07-02T03:57:40;11.07;;;6.15;;
13698;SDS011;6921;53.642;9.956;2023-07-02T03:59:43;12.73;;;5.75;;
13698;SDS011;6921;53.642;9.956;2023-07-02T04:01:48;12.50;;;6.15;;
13698;SDS011;6921;53.642;9.956;2023-07-02T04:03:53;11.00;;;5.57;;
13698;SDS011;6921;53.642;9.956;2023-07-02T04:05:58;12.55;;;6.10;;
13698;SDS011;6921;53.642;9.956;2023-07-02T04:08:02;13.57;;;5.75;;
13698;SDS011;6921;53.642;9.956;2023-07-02T04:10:06;9.55;;;5.53;;
13698;SDS011;6921;53.642;9.956;2023-07-02T04:12:11;9.70;;;5.70;;
13698;SDS011;6921;53.642;9.956;2023-07-02T04:14:15;14.88;;;6.05;;
13698;SDS011;6921;53.642;9.956;2023-07-02T04:16:18;11.90;;;5.10;;
13698;SDS011;6921;53.642;9.956;2023-07-02T04:18:22;9.48;;;5.97;;
13698;SDS011;6921;53.642;9.956;2023-07-02T04:20:26;15.82;;;6.45;;
13698;SDS011;6921;53.642;9.956;2023-07-02T04:22:31;10.80;;;5.75;;
13698;SDS011;6921;53.642;9.956;2023-07-02T04:24:35;12.07;;;6.15;;
13698;SDS011;6921;53.642;9.956;2023-07-02T04:26:38;13.60;;;7.05;;
13698;SDS011;6921;53.642;9.956;2023-07-02T04:28:52;10.40;;;5.50;;
13698;SDS011;6921;53.642;9.956;2023-07-02T04:30:58;9.32;;;5.65;;
13698;SDS011;6921;53.642;9.956;2023-07-02T04:33:01;17.45;;;6.10;;
13698;SDS011;6921;53.642;9.956;2023-07-02T04:35:07;12.13;;;5.97;;
13698;SDS011;6921;53.642;9.956;2023-07-02T04:37:10;12.82;;;6.45;;
13698;SDS011;6921;53.642;9.956;2023-07-02T04:39:17;12.55;;;6.18;;
13698;SDS011;6921;53.642;9.956;2023-07-02T04:41:21;15.25;;;6.03;;
13698;SDS011;6921;53.642;9.956;2023-07-02T04:43:25;12.52;;;6.97;;
13698;SDS011;6921;53.642;9.956;2023-07-02T04:45:30;11.98;;;6.20;;
13698;SDS011;6921;53.642;9.956;2023-07-02T04:47:37;13.52;;;6.57;;
13698;SDS011;6921;53.642;9.956;2023-07-02T04:49:40;15.30;;;6.15;;
13698;SDS011;6921;53.642;9.956;2023-07-02T04:51:44;11.93;;;6.00;;
13698;SDS011;6921;53.642;9.956;2023-07-02T04:53:47;11.38;;;5.53;;
13698;SDS011;6921;53.642;9.956;2023-07-02T04:55:52;17.00;;;6.22;;
13698;SDS011;6921;53.642;9.956;2023-07-02T04:57:56;11.43;;;6.13;;
13698;SDS011;6921;53.642;9.956;2023-07-02T04:59:59;14.10;;;6.85;;
13698;SDS011;6921;53.642;9.956;2023-07-02T05:02:04;15.90;;;6.30;;
13698;SDS011;6921;53.642;9.956;2023-07-02T05:04:08;12.65;;;5.90;;
13698;SDS011;6921;53.642;9.956;2023-07-02T05:06:12;14.57;;;6.22;;
13698;SDS011;6921;53.642;9.956;2023-07-02T05:08:16;15.15;;;5.72;;
13698;SDS011;6921;53.642;9.956;2023-07-02T05:10:20;17.33;;;5.88;;
13698;SDS011;6921;53.642;9.956;2023-07-02T05:12:25;16.95;;;6.25;;
13698;SDS011;6921;53.642;9.956;2023-07-02T05:14:29;14.00;;;6.13;;
13698;SDS011;6921;53.642;9.956;2023-07-02T05:16:32;16.35;;;6.45;;
13698;SDS011;6921;53.642;9.956;2023-07-02T05:18:36;11.85;;;6.22;;
13698;SDS011;6921;53.642;9.956;2023-07-02T05:20:39;14.93;;;6.40;;
13698;SDS011;6921;53.642;9.956;2023-07-02T05:22:43;16.50;;;6.82;;
13698;SDS011;6921;53.642;9.956;2023-07-02T05:24:47;15.52;;;6.13;;
13698;SDS011;6921;53.642;9.956;2023-07-02T05:26:53;18.15;;;6.55;;
13698;SDS011;6921;53.642;9.956;2023-07-02T05:28:59;18.92;;;6.90;;
13698;SDS011;6921;53.642;9.956;2023-07-02T05:31:03;12.68;;;5.78;;
13698;SDS011;6921;53.642;9.956;2023-07-02T05:33:09;15.85;;;6.95;;
13698;SDS011;6921;53.642;9.956;2023-07-02T05:35:13;19.45;;;7.30;;
13698;SDS011;6921;53.642;9.956;2023-07-02T05:37:16;20.08;;;6.88;;
13698;SDS011;6921;53.642;9.956;2023-07-02T05:39:23;17.05;;;7.03;;
13698;SDS011;6921;53.642;9.956;2023-07-02T05:41:27;18.95;;;6.72;;
13698;SDS011;6921;53.642;9.956;2023-07-02T05:43:32;13.23;;;6.85;;
13698;SDS011;6921;53.642;9.956;2023-07-02T05:45:37;15.20;;;6.65;;
13698;SDS011;6921;53.642;9.956;2023-07-02T05:47:40;16.40;;;6.50;;
13698;SDS011;6921;53.642;9.956;2023-07-02T05:49:44;15.90;;;7.20;;
13698;SDS011;6921;53.642;9.956;2023-07-02T05:51:48;15.70;;;7.00;;
13698;SDS011;6921;53.642;9.956;2023-07-02T05:53:51;19.83;;;6.75;;
13698;SDS011;6921;53.642;9.956;2023-07-02T05:55:55;15.40;;;6.72;;
13698;SDS011;6921;53.642;9.956;2023-07-02T05:57:58;16.30;;;6.93;;
13698;SDS011;6921;53.642;9.956;2023-07-02T06:00:04;14.65;;;6.10;;
13698;SDS011;6921;53.642;9.956;2023-07-02T06:02:10;18.00;;;7.28;;
13698;SDS011;6921;53.642;9.956;2023-07-02T06:04:16;20.77;;;7.25;;
13698;SDS011;6921;53.642;9.956;2023-07-02T06:06:20;18.92;;;7.40;;
13698;SDS011;6921;53.642;9.956;2023-07-02T06:08:25;17.75;;;6.43;;
13698;SDS011;6921;53.642;9.956;2023-07-02T06:10:30;18.35;;;7.05;;
13698;SDS011;6921;53.642;9.956;2023-07-02T06:12:33;19.27;;;7.80;;
13698;SDS011;6921;53.642;9.956;2023-07-02T06:14:36;17.92;;;7.13;;
13698;SDS011;6921;53.642;9.956;2023-07-02T06:16:40;14.82;;;7.65;;
13698;SDS011;6921;53.642;9.956;2023-07-02T06:18:48;15.15;;;7.07;;
13698;SDS011;6921;53.642;9.956;2023-07-02T06:20:52;15.98;;;6.72;;
13698;SDS011;6921;53.642;9.956;2023-07-02T06:22:56;16.90;;;7.22;;
13698;SDS011;6921;53.642;9.956;2023-07-02T06:24:59;18.05;;;7.05;;
13698;SDS011;6921;53.642;9.956;2023-07-02T06:27:05;22.90;;;8.10;;
13698;SDS011;6921;53.642;9.956;2023-07-02T06:29:10;17.23;;;6.97;;
13698;SDS011;6921;53.642;9.956;2023-07-02T06:31:14;17.13;;;7.40;;
13698;SDS011;6921;53.642;9.956;2023-07-02T06:33:19;18.83;;;7.38;;
13698;SDS011;6921;53.642;9.956;2023-07-02T06:35:26;16.08;;;7.28;;
13698;SDS011;6921;53.642;9.956;2023-07-02T06:37:31;17.17;;;7.22;;
13698;SDS011;6921;53.642;9.956;2023-07-02T06:39:34;20.75;;;7.22;;
13698;SDS011;6921;53.642;9.956;2023-07-02T06:41:38;19.50;;;7.13;;
13698;SDS011;6921;53.642;9.956;2023-07-02T06:43:42;14.80;;;6.30;;
13698;SDS011;6921;53.642;9.956;2023-07-02T06:45:46;17.88;;;7.00;;
13698;SDS011;6921;53.642;9.956;2023-07-02T06:47:50;19.58;;;7.38;;
13698;SDS011;6921;53.642;9.956;2023-07-02T06:49:56;21.67;;;7.50;;
13698;SDS011;6921;53.642;9.956;2023-07-02T06:52:02;22.92;;;7.25;;
13698;SDS011;6921;53.642;9.956;2023-07-02T06:54:05;13.93;;;6.68;;
13698;SDS011;6921;53.642;9.956;2023-07-02T06:56:11;21.08;;;7.45;;
13698;SDS011;6921;53.642;9.956;2023-07-02T06:58:14;14.00;;;6.53;;
13698;SDS011;6921;53.642;9.956;2023-07-02T07:00:18;19.65;;;7.25;;
13698;SDS011;6921;53.642;9.956;2023-07-02T07:02:22;16.95;;;7.50;;
13698;SDS011;6921;53.642;9.956;2023-07-02T07:04:26;16.83;;;7.15;;
13698;SDS011;6921;53.642;9.956;2023-07-02T07:06:31;15.85;;;7.72;;
13698;SDS011;6921;53.642;9.956;2023-07-02T07:08:38;17.35;;;7.22;;
13698;SDS011;6921;53.642;9.956;2023-07-02T07:10:41;16.67;;;7.60;;
13698;SDS011;6921;53.642;9.956;2023-07-02T07:12:47;18.70;;;7.63;;
13698;SDS011;6921;53.642;9.956;2023-07-02T07:14:50;18.23;;;7.32;;
13698;SDS011;6921;53.642;9.956;2023-07-02T07:16:55;20.27;;;8.20;;
13698;SDS011;6921;53.642;9.956;2023-07-02T07:18:58;21.60;;;8.43;;
13698;SDS011;6921;53.642;9.956;2023-07-02T07:21:02;17.92;;;7.57;;
13698;SDS011;6921;53.642;9.956;2023-07-02T07:23:05;20.27;;;7.90;;
13698;SDS011;6921;53.642;9.956;2023-07-02T07:25:11;18.10;;;7.20;;
13698;SDS011;6921;53.642;9.956;2023-07-02T07:27:16;21.73;;;7.80;;
13698;SDS011;6921;53.642;9.956;2023-07-02T07:29:21;16.45;;;7.63;;
13698;SDS011;6921;53.642;9.956;2023-07-02T07:31:26;19.10;;;8.05;;
13698;SDS011;6921;53.642;9.956;2023-07-02T07:33:29;18.67;;;7.50;;
13698;SDS011;6921;53.642;9.956;2023-07-02T07:35:32;14.48;;;7.22;;
13698;SDS011;6921;53.642;9.956;2023-07-02T07:37:37;18.05;;;7.53;;
13698;SDS011;6921;53.642;9.956;2023-07-02T07:39:42;18.27;;;7.32;;
13698;SDS011;6921;53.642;9.956;2023-07-02T07:41:47;20.23;;;7.47;;
13698;SDS011;6921;53.642;9.956;2023-07-02T07:43:51;16.98;;;6.78;;
13698;SDS011;6921;53.642;9.956;2023-07-02T07:45:56;15.73;;;6.65;;
13698;SDS011;6921;53.642;9.956;2023-07-02T07:48:00;19.73;;;7.20;;
13698;SDS011;6921;53.642;9.956;2023-07-02T07:50:04;15.98;;;7.07;;
13698;SDS011;6921;53.642;9.956;2023-07-02T07:52:12;17.25;;;6.32;;
13698;SDS011;6921;53.642;9.956;2023-07-02T07:54:16;12.55;;;6.60;;
13698;SDS011;6921;53.642;9.956;2023-07-02T07:56:20;15.05;;;6.82;;
13698;SDS011;6921;53.642;9.956;2023-07-02T07:58:25;17.88;;;6.88;;
13698;SDS011;6921;53.642;9.956;2023-07-02T08:00:29;16.63;;;7.15;;
13698;SDS011;6921;53.642;9.956;2023-07-02T08:02:33;12.23;;;5.90;;
13698;SDS011;6921;53.642;9.956;2023-07-02T08:04:37;17.38;;;7.10;;
13698;SDS011;6921;53.642;9.956;2023-07-02T08:06:41;15.20;;;7.30;;
13698;SDS011;6921;53.642;9.956;2023-07-02T08:08:45;12.77;;;6.55;;
13698;SDS011;6921;53.642;9.956;2023-07-02T08:10:49;13.85;;;6.47;;
13698;SDS011;6921;53.642;9.956;2023-07-02T08:12:53;16.52;;;6.35;;
13698;SDS011;6921;53.642;9.956;2023-07-02T08:14:58;11.20;;;5.57;;
13698;SDS011;6921;53.642;9.956;2023-07-02T08:17:01;15.07;;;6.32;;
13698;SDS011;6921;53.642;9.956;2023-07-02T08:19:08;16.23;;;6.53;;
13698;SDS011;6921;53.642;9.956;2023-07-02T08:21:11;13.20;;;6.68;;
13698;SDS011;6921;53.642;9.956;2023-07-02T08:23:15;16.73;;;6.88;;
13698;SDS011;6921;53.642;9.956;2023-07-02T08:25:19;14.20;;;5.82;;
13698;SDS011;6921;53.642;9.956;2023-07-02T08:27:25;12.30;;;6.00;;
13698;SDS011;6921;53.642;9.956;2023-07-02T08:29:29;13.07;;;6.45;;
13698;SDS011;6921;53.642;9.956;2023-07-02T08:31:34;11.13;;;6.13;;
13698;SDS011;6921;53.642;9.956;2023-07-02T08:33:38;14.15;;;6.20;;
13698;SDS011;6921;53.642;9.956;2023-07-02T08:35:41;16.85;;;6.53;;
13698;SDS011;6921;53.642;9.956;2023-07-02T08:37:45;14.07;;;6.00;;
13698;SDS011;6921;53.642;9.956;2023-07-02T08:39:50;13.40;;;5.80;;
13698;SDS011;6921;53.642;9.956;2023-07-02T08:41:53;13.45;;;5.88;;
13698;SDS011;6921;53.642;9.956;2023-07-02T08:43:57;15.38;;;5.95;;
13698;SDS011;6921;53.642;9.956;2023-07-02T08:46:05;13.13;;;5.80;;
13698;SDS011;6921;53.642;9.956;2023-07-02T08:48:12;13.85;;;6.28;;
13698;SDS011;6921;53.642;9.956;2023-07-02T08:50:16;13.60;;;5.70;;
13698;SDS011;6921;53.642;9.956;2023-07-02T08:52:19;13.93;;;5.47;;
13698;SDS011;6921;53.642;9.956;2023-07-02T08:54:23;14.02;;;5.97;;
13698;SDS011;6921;53.642;9.956;2023-07-02T08:56:27;9.65;;;5.13;;
13698;SDS011;6921;53.642;9.956;2023-07-02T08:58:31;10.00;;;4.80;;
13698;SDS011;6921;53.642;9.956;2023-07-02T09:00:34;9.95;;;5.70;;
13698;SDS011;6921;53.642;9.956;2023-07-02T09:02:38;13.52;;;5.30;;
13698;SDS011;6921;53.642;9.956;2023-07-02T09:04:43;12.90;;;5.00;;
13698;SDS011;6921;53.642;9.956;2023-07-02T09:06:51;9.95;;;4.75;;
13698;SDS011;6921;53.642;9.956;2023-07-02T09:09:05;9.23;;;4.72;;
13698;SDS011;6921;53.642;9.956;2023-07-02T09:11:09;12.60;;;5.68;;
13698;SDS011;6921;53.642;9.956;2023-07-02T09:13:14;10.88;;;4.30;;
13698;SDS011;6921;53.642;9.956;2023-07-02T09:15:18;13.43;;;4.78;;
13698;SDS011;6921;53.642;9.956;2023-07-02T09:17:27;12.00;;;5.03;;
13698;SDS011;6921;53.642;9.956;2023-07-02T09:19:32;9.80;;;4.60;;
13698;SDS011;6921;53.642;9.956;2023-07-02T09:21:40;14.35;;;5.18;;
13698;SDS011;6921;53.642;9.956;2023-07-02T09:23:47;12.85;;;5.13;;
13698;SDS011;6921;53.642;9.956;2023-07-02T09:25:50;13.57;;;5.20;;
13698;SDS011;6921;53.642;9.956;2023-07-02T09:27:53;13.13;;;4.60;;
13698;SDS011;6921;53.642;9.956;2023-07-02T09:29:57;12.10;;;4.97;;
13698;SDS011;6921;53.642;9.956;2023-07-02T09:32:09;12.80;;;4.95;;
13698;SDS011;6921;53.642;9.956;2023-07-02T09:34:14;10.15;;;5.35;;
13698;SDS011;6921;53.642;9.956;2023-07-02T09:36:18;10.88;;;5.43;;
13698;SDS011;6921;53.642;9.956;2023-07-02T09:38:23;12.02;;;5.35;;
13698;SDS011;6921;53.642;9.956;2023-07-02T09:40:26;10.15;;;5.47;;
13698;SDS011;6921;53.642;9.956;2023-07-02T09:42:30;12.75;;;5.70;;
13698;SDS011;6921;53.642;9.956;2023-07-02T09:44:34;11.15;;;5.70;;
13698;SDS011;6921;53.642;9.956;2023-07-02T09:46:40;12.52;;;5.15;;
13698;SDS011;6921;53.642;9.956;2023-07-02T09:48:46;13.80;;;5.32;;
13698;SDS011;6921;53.642;9.956;2023-07-02T09:50:51;10.05;;;5.32;;
13698;SDS011;6921;53.642;9.956;2023-07-02T09:52:55;11.32;;;5.28;;
13698;SDS011;6921;53.642;9.956;2023-07-02T09:55:00;8.45;;;4.70;;
13698;SDS011;6921;53.642;9.956;2023-07-02T09:57:05;10.25;;;4.53;;
13698;SDS011;6921;53.642;9.956;2023-07-02T09:59:09;14.00;;;4.75;;
13698;SDS011;6921;53.642;9.956;2023-07-02T10:01:13;11.85;;;5.00;;
13698;SDS011;6921;53.642;9.956;2023-07-02T10:03:16;7.38;;;4.38;;
13698;SDS011;6921;53.642;9.956;2023-07-02T10:05:27;10.75;;;4.82;;
13698;SDS011;6921;53.642;9.956;2023-07-02T10:07:31;9.40;;;4.10;;
13698;SDS011;6921;53.642;9.956;2023-07-02T10:09:38;9.85;;;4.13;;
13698;SDS011;6921;53.642;9.956;2023-07-02T10:11:43;11.02;;;4.30;;
13698;SDS011;6921;53.642;9.956;2023-07-02T10:13:57;8.65;;;4.15;;
13698;SDS011;6921;53.642;9.956;2023-07-02T10:16:01;9.07;;;3.95;;
13698;SDS011;6921;53.642;9.956;2023-07-02T10:18:05;9.70;;;3.75;;
13698;SDS011;6921;53.642;9.956;2023-07-02T10:20:10;11.20;;;4.07;;
13698;SDS011;6921;53.642;9.956;2023-07-02T10:22:15;12.65;;;3.97;;
13698;SDS011;6921;53.642;9.956;2023-07-02T10:24:19;10.05;;;3.88;;
13698;SDS011;6921;53.642;9.956;2023-07-02T10:26:22;7.85;;;3.55;;
13698;SDS011;6921;53.642;9.956;2023-07-02T10:28:29;10.05;;;3.83;;
13698;SDS011;6921;53.642;9.956;2023-07-02T10:30:33;7.63;;;4.35;;
13698;SDS011;6921;53.642;9.956;2023-07-02T10:32:38;9.52;;;4.28;;
13698;SDS011;6921;53.642;9.956;2023-07-02T10:34:44;8.35;;;4.15;;
13698;SDS011;6921;53.642;9.956;2023-07-02T10:36:47;8.27;;;4.45;;
13698;SDS011;6921;53.642;9.956;2023-07-02T10:39:01;9.63;;;4.38;;
13698;SDS011;6921;53.642;9.956;2023-07-02T10:41:06;8.10;;;3.58;;
13698;SDS011;6921;53.642;9.956;2023-07-02T10:43:10;9.13;;;3.88;;
13698;SDS011;6921;53.642;9.956;2023-07-02T10:45:16;10.20;;;4.22;;
13698;SDS011;6921;53.642;9.956;2023-07-02T10:47:20;10.30;;;4.20;;
13698;SDS011;6921;53.642;9.956;2023-07-02T10:49:29;11.10;;;4.25;;
13698;SDS011;6921;53.642;9.956;2023-07-02T10:51:35;7.55;;;3.38;;
13698;SDS011;6921;53.642;9.956;2023-07-02T10:53:38;6.30;;;3.50;;
13698;SDS011;6921;53.642;9.956;2023-07-02T10:55:42;9.18;;;3.47;;
13698;SDS011;6921;53.642;9.956;2023-07-02T10:57:46;7.63;;;3.35;;
13698;SDS011;6921;53.642;9.956;2023-07-02T10:59:50;9.30;;;3.95;;
13698;SDS011;6921;53.642;9.956;2023-07-02T11:01:55;9.98;;;3.40;;
13698;SDS011;6921;53.642;9.956;2023-07-02T11:04:05;8.57;;;3.25;;
13698;SDS011;6921;53.642;9.956;2023-07-02T11:06:09;10.00;;;3.20;;
13698;SDS011;6921;53.642;9.956;2023-07-02T11:08:14;5.80;;;3.20;;
13698;SDS011;6921;53.642;9.956;2023-07-02T11:10:17;8.77;;;3.72;;
13698;SDS011;6921;53.642;9.956;2023-07-02T11:12:27;8.80;;;3.50;;
13698;SDS011;6921;53.642;9.956;2023-07-02T11:14:31;5.70;;;2.85;;
13698;SDS011;6921;53.642;9.956;2023-07-02T11:16:35;7.55;;;3.15;;
13698;SDS011;6921;53.642;9.956;2023-07-02T11:18:42;9.70;;;2.95;;
13698;SDS011;6921;53.642;9.956;2023-07-02T11:20:46;8.90;;;3.80;;
13698;SDS011;6921;53.642;9.956;2023-07-02T11:22:50;9.50;;;3.53;;
13698;SDS011;6921;53.642;9.956;2023-07-02T11:24:54;7.97;;;3.45;;
13698;SDS011;6921;53.642;9.956;2023-07-02T11:26:57;8.48;;;3.40;;
13698;SDS011;6921;53.642;9.956;2023-07-02T11:29:01;9.10;;;4.13;;
13698;SDS011;6921;53.642;9.956;2023-07-02T11:31:04;9.15;;;3.30;;
13698;SDS011;6921;53.642;9.956;2023-07-02T11:33:09;8.30;;;3.72;;
13698;SDS011;6921;53.642;9.956;2023-07-02T11:35:13;7.15;;;3.35;;
13698;SDS011;6921;53.642;9.956;2023-07-02T11:37:17;7.43;;;3.20;;
13698;SDS011;6921;53.642;9.956;2023-07-02T11:39:21;7.20;;;3.10;;
13698;SDS011;6921;53.642;9.956;2023-07-02T11:41:24;7.32;;;3.17;;
13698;SDS011;6921;53.642;9.956;2023-07-02T11:43:28;9.50;;;3.25;;
13698;SDS011;6921;53.642;9.956;2023-07-02T11:45:31;7.70;;;2.80;;
13698;SDS011;6921;53.642;9.956;2023-07-02T11:47:34;8.30;;;3.67;;
13698;SDS011;6921;53.642;9.956;2023-07-02T11:49:40;8.10;;;3.08;;
13698;SDS011;6921;53.642;9.956;2023-07-02T11:51:46;7.13;;;3.28;;
13698;SDS011;6921;53.642;9.956;2023-07-02T11:53:49;8.13;;;3.03;;
13698;SDS011;6921;53.642;9.956;2023-07-02T11:55:53;6.95;;;2.75;;
13698;SDS011;6921;53.642;9.956;2023-07-02T11:57:56;6.65;;;2.72;;
13698;SDS011;6921;53.642;9.956;2023-07-02T11:59:59;9.05;;;3.25;;
13698;SDS011;6921;53.642;9.956;2023-07-02T12:02:04;8.05;;;3.70;;
13698;SDS011;6921;53.642;9.956;2023-07-02T12:04:10;10.73;;;4.03;;
13698;SDS011;6921;53.642;9.956;2023-07-02T12:06:14;7.22;;;2.85;;
13698;SDS011;6921;53.642;9.956;2023-07-02T12:08:19;8.45;;;3.95;;
13698;SDS011;6921;53.642;9.956;2023-07-02T12:10:22;9.68;;;3.63;;
13698;SDS011;6921;53.642;9.956;2023-07-02T12:12:26;10.30;;;3.60;;
13698;SDS011;6921;53.642;9.956;2023-07-02T12:14:30;9.27;;;3.40;;
13698;SDS011;6921;53.642;9.956;2023-07-02T12:16:33;7.65;;;3.30;;
13698;SDS011;6921;53.642;9.956;2023-07-02T12:18:36;7.90;;;3.13;;
13698;SDS011;6921;53.642;9.956;2023-07-02T12:20:40;7.22;;;3.08;;
13698;SDS011;6921;53.642;9.956;2023-07-02T12:22:43;9.10;;;2.80;;
13698;SDS011;6921;53.642;9.956;2023-07-02T12:24:47;6.57;;;2.90;;
13698;SDS011;6921;53.642;9.956;2023-07-02T12:26:51;8.57;;;3.47;;
13698;SDS011;6921;53.642;9.956;2023-07-02T12:28:54;8.00;;;3.30;;
13698;SDS011;6921;53.642;9.956;2023-07-02T12:30:58;7.22;;;2.70;;
13698;SDS011;6921;53.642;9.956;2023-07-02T12:33:01;7.15;;;2.60;;
13698;SDS011;6921;53.642;9.956;2023-07-02T12:35:05;8.38;;;3.20;;